sensor_id;sensor_type;location;lat;lon;timestamp;pressure;altitude;pressure_sealevel;temperature;humidity
10940;BME280;5522;42.696;23.494;2023-02-22T00:01:41;53570.38;;;-139.68;100.00
10940;BME280;5522;42.696;23.494;2023-02-22T00:04:15;53550.25;;;-139.68;100.00
10940;BME280;5522;42.696;23.494;2023-02-22T00:06:46;53616.59;;;-139.68;100.00
10940;BME280;5522;42.696;23.494;2023-02-22T00:09:14;53610.56;;;-139.68;100.00
10940;BME280;5522;42.696;23.494;2023-02-22T00:11:46;53558.31;;;-139.68;100.00
10940;BME280;5522;42.696;23.494;2023-02-22T00:14:13;53584.44;;;-139.68;100.00
10940;BME280;5522;42.696;23.494;2023-02-22T00:16:40;53592.47;;;-139.68;100.00
10940;BME280;5522;42.696;23.494;2023-02-22T00:19:07;53610.56;;;-139.68;100.00
10940;BME280;5522;42.696;23.494;2023-02-22T00:21:34;53586.44;;;-139.68;100.00
10940;BME280;5522;42.696;23.494;2023-02-22T00:24:01;53554.28;;;-139.68;100.00
10940;BME280;5522;42.696;23.494;2023-02-22T00:26:49;53558.31;;;-139.68;100.00
10940;BME280;5522;42.696;23.494;2023-02-22T00:29:16;53584.44;;;-139.68;100.00
10940;BME280;5522;42.696;23.494;2023-02-22T00:31:43;53614.59;;;-139.68;100.00
10940;BME280;5522;42.696;23.494;2023-02-22T00:34:10;53618.63;;;-139.68;100.00
10940;BME280;5522;42.696;23.494;2023-02-22T00:36:36;53568.34;;;-139.68;100.00
10940;BME280;5522;42.696;23.494;2023-02-22T00:39:03;53584.44;;;-139.68;100.00
10940;BME280;5522;42.696;23.494;2023-02-22T00:41:32;53526.16;;;-139.68;100.00
10940;BME280;5522;42.696;23.494;2023-02-22T00:44:00;53598.50;;;-139.68;100.00
10940;BME280;5522;42.696;23.494;2023-02-22T00:46:27;53546.25;;;-139.68;100.00
10940;BME280;5522;42.696;23.494;2023-02-22T00:48:53;53610.56;;;-139.68;100.00
10940;BME280;5522;42.696;23.494;2023-02-22T00:51:21;53570.38;;;-139.68;100.00
10940;BME280;5522;42.696;23.494;2023-02-22T00:53:50;53554.28;;;-139.68;100.00
10940;BME280;5522;42.696;23.494;2023-02-22T00:56:17;53594.50;;;-139.68;100.00
10940;BME280;5522;42.696;23.494;2023-02-22T00:58:44;53538.19;;;-139.68;100.00
10940;BME280;5522;42.696;23.494;2023-02-22T01:06:22;53594.50;;;-139.68;100.00
10940;BME280;5522;42.696;23.494;2023-02-22T01:08:57;53562.31;;;-139.68;100.00
10940;BME280;5522;42.696;23.494;2023-02-22T01:11:24;53554.28;;;-139.68;100.00
10940;BME280;5522;42.696;23.494;2023-02-22T01:13:50;53552.28;;;-139.68;100.00
10940;BME280;5522;42.696;23.494;2023-02-22T01:16:18;53578.41;;;-139.68;100.00
10940;BME280;5522;42.696;23.494;2023-02-22T01:18:45;53602.53;;;-139.68;100.00
10940;BME280;5522;42.696;23.494;2023-02-22T01:21:12;53566.34;;;-139.68;100.00
10940;BME280;5522;42.696;23.494;2023-02-22T01:23:41;53534.19;;;-139.68;100.00
10940;BME280;5522;42.696;23.494;2023-02-22T01:26:09;53598.50;;;-139.68;100.00
10940;BME280;5522;42.696;23.494;2023-02-22T01:28:37;53556.28;;;-139.68;100.00
10940;BME280;5522;42.696;23.494;2023-02-22T01:31:04;53542.22;;;-139.68;100.00
10940;BME280;5522;42.696;23.494;2023-02-22T01:33:31;53550.25;;;-139.68;100.00
10940;BME280;5522;42.696;23.494;2023-02-22T01:35:58;53552.28;;;-139.68;100.00
10940;BME280;5522;42.696;23.494;2023-02-22T01:38:25;53568.34;;;-139.68;100.00
10940;BME280;5522;42.696;23.494;2023-02-22T01:40:53;53558.31;;;-139.68;100.00
10940;BME280;5522;42.696;23.494;2023-02-22T01:43:22;53576.41;;;-139.68;100.00
10940;BME280;5522;42.696;23.494;2023-02-22T01:45:57;53544.22;;;-139.68;100.00
10940;BME280;5522;42.696;23.494;2023-02-22T01:48:38;53542.22;;;-139.68;100.00
10940;BME280;5522;42.696;23.494;2023-02-22T01:51:10;53558.31;;;-139.68;100.00
10940;BME280;5522;42.696;23.494;2023-02-22T01:53:43;53536.19;;;-139.68;100.00
10940;BME280;5522;42.696;23.494;2023-02-22T01:56:14;53546.25;;;-139.68;100.00
10940;BME280;5522;42.696;23.494;2023-02-22T01:58:44;53572.38;;;-139.68;100.00
10940;BME280;5522;42.696;23.494;2023-02-22T02:01:13;53542.22;;;-139.68;100.00
10940;BME280;5522;42.696;23.494;2023-02-22T02:03:40;53546.25;;;-139.68;100.00
10940;BME280;5522;42.696;23.494;2023-02-22T02:06:11;53568.34;;;-139.68;100.00
10940;BME280;5522;42.696;23.494;2023-02-22T02:08:45;53568.34;;;-139.68;100.00
10940;BME280;5522;42.696;23.494;2023-02-22T02:11:20;53538.19;;;-139.68;100.00
10940;BME280;5522;42.696;23.494;2023-02-22T02:13:50;53558.31;;;-139.68;100.00
10940;BME280;5522;42.696;23.494;2023-02-22T02:16:20;53554.28;;;-139.68;100.00
10940;BME280;5522;42.696;23.494;2023-02-22T02:18:47;53570.38;;;-139.68;100.00
10940;BME280;5522;42.696;23.494;2023-02-22T02:24:42;53558.31;;;-139.68;100.00
10940;BME280;5522;42.696;23.494;2023-02-22T02:27:18;53538.19;;;-139.68;100.00
10940;BME280;5522;42.696;23.494;2023-02-22T02:32:53;53582.44;;;-139.68;100.00
10940;BME280;5522;42.696;23.494;2023-02-22T02:35:30;53554.28;;;-139.68;100.00
10940;BME280;5522;42.696;23.494;2023-02-22T02:38:07;53582.44;;;-139.68;100.00
10940;BME280;5522;42.696;23.494;2023-02-22T02:40:42;53584.44;;;-139.68;100.00
10940;BME280;5522;42.696;23.494;2023-02-22T02:43:15;53562.31;;;-139.68;100.00
10940;BME280;5522;42.696;23.494;2023-02-22T02:45:47;53574.38;;;-139.68;100.00
10940;BME280;5522;42.696;23.494;2023-02-22T02:48:20;53546.25;;;-139.68;100.00
10940;BME280;5522;42.696;23.494;2023-02-22T02:50:49;53530.16;;;-139.68;100.00
10940;BME280;5522;42.696;23.494;2023-02-22T02:53:20;53554.28;;;-139.68;100.00
10940;BME280;5522;42.696;23.494;2023-02-22T02:55:47;53538.19;;;-139.68;100.00
10940;BME280;5522;42.696;23.494;2023-02-22T02:58:20;53546.25;;;-139.68;100.00
10940;BME280;5522;42.696;23.494;2023-02-22T03:00:49;53526.16;;;-139.68;100.00
10940;BME280;5522;42.696;23.494;2023-02-22T03:03:31;53522.13;;;-139.68;100.00
10940;BME280;5522;42.696;23.494;2023-02-22T03:06:18;53586.44;;;-139.68;100.00
10940;BME280;5522;42.696;23.494;2023-02-22T03:08:54;53514.09;;;-139.68;100.00
10940;BME280;5522;42.696;23.494;2023-02-22T03:11:26;53526.16;;;-139.68;100.00
10940;BME280;5522;42.696;23.494;2023-02-22T03:14:00;53556.28;;;-139.68;100.00
10940;BME280;5522;42.696;23.494;2023-02-22T03:16:32;53542.22;;;-139.68;100.00
10940;BME280;5522;42.696;23.494;2023-02-22T03:19:06;53554.28;;;-139.68;100.00
10940;BME280;5522;42.696;23.494;2023-02-22T03:21:42;53560.31;;;-139.68;100.00
10940;BME280;5522;42.696;23.494;2023-02-22T03:24:15;53566.34;;;-139.68;100.00
10940;BME280;5522;42.696;23.494;2023-02-22T03:26:48;53570.38;;;-139.68;100.00
10940;BME280;5522;42.696;23.494;2023-02-22T03:29:19;53538.19;;;-139.68;100.00
10940;BME280;5522;42.696;23.494;2023-02-22T03:31:50;53530.16;;;-139.68;100.00
10940;BME280;5522;42.696;23.494;2023-02-22T03:34:22;53606.56;;;-139.68;100.00
10940;BME280;5522;42.696;23.494;2023-02-22T03:36:55;53542.22;;;-139.68;100.00
10940;BME280;5522;42.696;23.494;2023-02-22T03:39:24;53562.31;;;-139.68;100.00
10940;BME280;5522;42.696;23.494;2023-02-22T03:41:57;53550.25;;;-139.68;100.00
10940;BME280;5522;42.696;23.494;2023-02-22T03:44:28;53548.25;;;-139.68;100.00
10940;BME280;5522;42.696;23.494;2023-02-22T03:47:00;53564.34;;;-139.68;100.00
10940;BME280;5522;42.696;23.494;2023-02-22T03:49:35;53562.31;;;-139.68;100.00
10940;BME280;5522;42.696;23.494;2023-02-22T03:52:03;53524.13;;;-139.68;100.00
10940;BME280;5522;42.696;23.494;2023-02-22T03:54:31;53534.19;;;-139.68;100.00
10940;BME280;5522;42.696;23.494;2023-02-22T03:57:04;53526.16;;;-139.68;100.00
10940;BME280;5522;42.696;23.494;2023-02-22T03:59:32;53566.34;;;-139.68;100.00
10940;BME280;5522;42.696;23.494;2023-02-22T04:01:59;53570.38;;;-139.68;100.00
10940;BME280;5522;42.696;23.494;2023-02-22T04:04:26;53566.34;;;-139.68;100.00
10940;BME280;5522;42.696;23.494;2023-02-22T04:06:55;53560.31;;;-139.68;100.00
10940;BME280;5522;42.696;23.494;2023-02-22T04:09:22;53574.38;;;-139.68;100.00
10940;BME280;5522;42.696;23.494;2023-02-22T04:11:49;53568.34;;;-139.68;100.00
10940;BME280;5522;42.696;23.494;2023-02-22T04:14:16;53576.41;;;-139.68;100.00
10940;BME280;5522;42.696;23.494;2023-02-22T04:16:43;53518.09;;;-139.68;100.00
10940;BME280;5522;42.696;23.494;2023-02-22T04:19:10;53582.44;;;-139.68;100.00
10940;BME280;5522;42.696;23.494;2023-02-22T04:21:36;53590.47;;;-139.68;100.00
10940;BME280;5522;42.696;23.494;2023-02-22T04:24:05;53584.44;;;-139.68;100.00
10940;BME280;5522;42.696;23.494;2023-02-22T04:26:32;53522.13;;;-139.68;100.00
10940;BME280;5522;42.696;23.494;2023-02-22T04:28:59;53578.41;;;-139.68;100.00
10940;BME280;5522;42.696;23.494;2023-02-22T04:31:26;53576.41;;;-139.68;100.00
10940;BME280;5522;42.696;23.494;2023-02-22T04:33:52;53598.50;;;-139.68;100.00
10940;BME280;5522;42.696;23.494;2023-02-22T04:36:19;53568.34;;;-139.68;100.00
10940;BME280;5522;42.696;23.494;2023-02-22T04:38:46;53526.16;;;-139.68;100.00
10940;BME280;5522;42.696;23.494;2023-02-22T04:41:15;53544.22;;;-139.68;100.00
10940;BME280;5522;42.696;23.494;2023-02-22T04:43:42;53550.25;;;-139.68;100.00
10940;BME280;5522;42.696;23.494;2023-02-22T04:46:09;53538.19;;;-139.68;100.00
10940;BME280;5522;42.696;23.494;2023-02-22T04:48:36;53532.16;;;-139.68;100.00
10940;BME280;5522;42.696;23.494;2023-02-22T04:51:03;53554.28;;;-139.68;100.00
10940;BME280;5522;42.696;23.494;2023-02-22T04:53:30;53574.38;;;-139.68;100.00
10940;BME280;5522;42.696;23.494;2023-02-22T04:55:57;53550.25;;;-139.68;100.00
10940;BME280;5522;42.696;23.494;2023-02-22T04:58:25;53524.13;;;-139.68;100.00
10940;BME280;5522;42.696;23.494;2023-02-22T05:00:52;53598.50;;;-139.68;100.00
10940;BME280;5522;42.696;23.494;2023-02-22T05:03:19;53516.09;;;-139.68;100.00
10940;BME280;5522;42.696;23.494;2023-02-22T05:05:46;53510.06;;;-139.68;100.00
10940;BME280;5522;42.696;23.494;2023-02-22T05:08:13;53534.19;;;-139.68;100.00
10940;BME280;5522;42.696;23.494;2023-02-22T05:10:39;53532.16;;;-139.68;100.00
10940;BME280;5522;42.696;23.494;2023-02-22T05:13:06;53584.44;;;-139.68;100.00
10940;BME280;5522;42.696;23.494;2023-02-22T05:15:35;53546.25;;;-139.68;100.00
10940;BME280;5522;42.696;23.494;2023-02-22T05:18:01;53562.31;;;-139.68;100.00
10940;BME280;5522;42.696;23.494;2023-02-22T05:20:30;53586.44;;;-139.68;100.00
10940;BME280;5522;42.696;23.494;2023-02-22T05:22:59;53526.16;;;-139.68;100.00
10940;BME280;5522;42.696;23.494;2023-02-22T05:25:27;53526.16;;;-139.68;100.00
10940;BME280;5522;42.696;23.494;2023-02-22T05:27:55;53522.13;;;-139.68;100.00
10940;BME280;5522;42.696;23.494;2023-02-22T05:30:25;53542.22;;;-139.68;100.00
10940;BME280;5522;42.696;23.494;2023-02-22T05:32:54;53538.19;;;-139.68;100.00
10940;BME280;5522;42.696;23.494;2023-02-22T05:35:22;53542.22;;;-139.68;100.00
10940;BME280;5522;42.696;23.494;2023-02-22T05:37:48;53546.25;;;-139.68;100.00
10940;BME280;5522;42.696;23.494;2023-02-22T05:40:17;53550.25;;;-139.68;100.00
10940;BME280;5522;42.696;23.494;2023-02-22T05:42:44;53574.38;;;-139.68;100.00
10940;BME280;5522;42.696;23.494;2023-02-22T05:45:12;53538.19;;;-139.68;100.00
10940;BME280;5522;42.696;23.494;2023-02-22T05:47:39;53598.50;;;-139.68;100.00
10940;BME280;5522;42.696;23.494;2023-02-22T05:50:08;53544.22;;;-139.68;88.39
10940;BME280;5522;42.696;23.494;2023-02-22T05:52:35;53558.31;;;-139.68;78.30
10940;BME280;5522;42.696;23.494;2023-02-22T05:55:03;53620.63;;;-139.68;58.41
10940;BME280;5522;42.696;23.494;2023-02-22T05:57:30;53658.81;;;-139.68;48.07
10940;BME280;5522;42.696;23.494;2023-02-22T05:59:57;53610.56;;;-139.68;45.78
10940;BME280;5522;42.696;23.494;2023-02-22T06:02:24;53658.81;;;-139.68;44.20
10940;BME280;5522;42.696;23.494;2023-02-22T06:04:50;53654.78;;;-139.68;41.65
10940;BME280;5522;42.696;23.494;2023-02-22T06:07:19;53656.81;;;-139.68;41.91
10940;BME280;5522;42.696;23.494;2023-02-22T06:09:47;53610.56;;;-139.68;40.04
10940;BME280;5522;42.696;23.494;2023-02-22T06:12:13;53650.78;;;-139.68;40.33
10940;BME280;5522;42.696;23.494;2023-02-22T06:14:41;53650.78;;;-139.68;40.08
10940;BME280;5522;42.696;23.494;2023-02-22T06:17:10;53680.94;;;-139.68;37.31
10940;BME280;5522;42.696;23.494;2023-02-22T06:19:38;53664.84;;;-139.68;37.67
10940;BME280;5522;42.696;23.494;2023-02-22T06:22:05;53622.63;;;-139.68;36.50
10940;BME280;5522;42.696;23.494;2023-02-22T06:24:37;53684.94;;;-139.68;36.45
10940;BME280;5522;42.696;23.494;2023-02-22T06:27:04;53618.63;;;-139.68;37.08
10940;BME280;5522;42.696;23.494;2023-02-22T06:29:31;53656.81;;;-139.68;36.81
10940;BME280;5522;42.696;23.494;2023-02-22T06:31:58;53662.84;;;-139.68;36.92
10940;BME280;5522;42.696;23.494;2023-02-22T06:34:24;53650.78;;;-139.68;37.25
10940;BME280;5522;42.696;23.494;2023-02-22T06:36:51;53658.81;;;-139.68;36.77
10940;BME280;5522;42.696;23.494;2023-02-22T06:39:18;53664.84;;;-139.68;36.60
10940;BME280;5522;42.696;23.494;2023-02-22T06:41:46;53676.91;;;-139.68;35.86
10940;BME280;5522;42.696;23.494;2023-02-22T06:44:15;53670.88;;;-139.68;34.00
10940;BME280;5522;42.696;23.494;2023-02-22T06:46:46;53693.00;;;-139.68;35.69
10940;BME280;5522;42.696;23.494;2023-02-22T06:49:15;53703.03;;;-139.68;34.04
10940;BME280;5522;42.696;23.494;2023-02-22T06:51:42;53682.94;;;-139.68;33.43
10940;BME280;5522;42.696;23.494;2023-02-22T06:54:09;53686.97;;;-139.68;32.10
10940;BME280;5522;42.696;23.494;2023-02-22T06:56:36;53723.13;;;-139.68;31.80
10940;BME280;5522;42.696;23.494;2023-02-22T06:59:04;53699.03;;;-139.68;31.03
10940;BME280;5522;42.696;23.494;2023-02-22T07:01:31;53686.97;;;-139.68;31.47
10940;BME280;5522;42.696;23.494;2023-02-22T07:03:58;53682.94;;;-139.68;31.85
10940;BME280;5522;42.696;23.494;2023-02-22T07:06:25;53707.06;;;-139.68;31.19
10940;BME280;5522;42.696;23.494;2023-02-22T07:08:52;53751.28;;;-139.68;31.19
10940;BME280;5522;42.696;23.494;2023-02-22T07:11:19;53705.06;;;-139.68;30.81
10940;BME280;5522;42.696;23.494;2023-02-22T07:13:45;53731.19;;;-139.68;29.36
10940;BME280;5522;42.696;23.494;2023-02-22T07:16:14;53763.34;;;-139.68;29.14
10940;BME280;5522;42.696;23.494;2023-02-22T07:18:40;53747.25;;;-139.68;29.00
10940;BME280;5522;42.696;23.494;2023-02-22T07:21:07;53763.34;;;-139.68;27.96
10940;BME280;5522;42.696;23.494;2023-02-22T07:23:35;53755.31;;;-139.68;27.13
10940;BME280;5522;42.696;23.494;2023-02-22T07:26:02;53807.56;;;-139.68;27.35
10940;BME280;5522;42.696;23.494;2023-02-22T07:28:29;53773.41;;;-139.68;27.64
10940;BME280;5522;42.696;23.494;2023-02-22T07:30:56;53773.41;;;-139.68;27.30
10940;BME280;5522;42.696;23.494;2023-02-22T07:33:25;53789.47;;;-139.68;26.74
10940;BME280;5522;42.696;23.494;2023-02-22T07:35:52;53763.34;;;-139.68;26.73
10940;BME280;5522;42.696;23.494;2023-02-22T07:38:19;53767.38;;;-139.68;27.27
10940;BME280;5522;42.696;23.494;2023-02-22T07:40:45;53731.19;;;-139.68;27.63
10940;BME280;5522;42.696;23.494;2023-02-22T07:43:14;53727.16;;;-139.68;26.61
10940;BME280;5522;42.696;23.494;2023-02-22T07:45:42;53795.50;;;-139.68;27.61
10940;BME280;5522;42.696;23.494;2023-02-22T07:48:09;53773.41;;;-139.68;26.63
10940;BME280;5522;42.696;23.494;2023-02-22T07:50:38;53771.38;;;-139.68;26.80
10940;BME280;5522;42.696;23.494;2023-02-22T07:53:09;53751.28;;;-139.68;26.76
10940;BME280;5522;42.696;23.494;2023-02-22T07:55:37;53793.50;;;-139.68;26.91
10940;BME280;5522;42.696;23.494;2023-02-22T07:58:05;53783.44;;;-139.68;26.76
10940;BME280;5522;42.696;23.494;2023-02-22T08:00:35;53777.41;;;-139.68;27.10
10940;BME280;5522;42.696;23.494;2023-02-22T08:03:05;53767.38;;;-139.68;26.98
10940;BME280;5522;42.696;23.494;2023-02-22T08:05:35;53819.63;;;-139.68;26.96
10940;BME280;5522;42.696;23.494;2023-02-22T08:08:05;53799.53;;;-139.68;28.08
10940;BME280;5522;42.696;23.494;2023-02-22T08:10:33;53767.38;;;-139.68;27.41
10940;BME280;5522;42.696;23.494;2023-02-22T08:13:01;53767.38;;;-139.68;27.47
10940;BME280;5522;42.696;23.494;2023-02-22T08:15:29;53795.50;;;-139.68;27.15
10940;BME280;5522;42.696;23.494;2023-02-22T08:17:57;53767.38;;;-139.68;26.70
10940;BME280;5522;42.696;23.494;2023-02-22T08:20:26;53775.41;;;-139.68;26.51
10940;BME280;5522;42.696;23.494;2023-02-22T08:22:53;53787.47;;;-139.68;25.87
10940;BME280;5522;42.696;23.494;2023-02-22T08:25:24;53817.63;;;-139.68;25.44
10940;BME280;5522;42.696;23.494;2023-02-22T08:27:52;53807.56;;;-139.68;26.32
10940;BME280;5522;42.696;23.494;2023-02-22T08:30:23;53801.53;;;-139.68;25.71
10940;BME280;5522;42.696;23.494;2023-02-22T08:32:50;53755.31;;;-139.68;25.18
10940;BME280;5522;42.696;23.494;2023-02-22T08:35:19;53795.50;;;-139.68;25.40
10940;BME280;5522;42.696;23.494;2023-02-22T08:37:47;53801.53;;;-139.68;25.53
10940;BME280;5522;42.696;23.494;2023-02-22T08:40:18;53807.56;;;-139.68;24.68
10940;BME280;5522;42.696;23.494;2023-02-22T08:42:47;53779.44;;;-139.68;23.85
10940;BME280;5522;42.696;23.494;2023-02-22T08:45:15;53757.31;;;-139.68;24.81
10940;BME280;5522;42.696;23.494;2023-02-22T08:47:42;53803.56;;;-139.68;24.43
10940;BME280;5522;42.696;23.494;2023-02-22T08:50:15;53803.56;;;-139.68;24.16
10940;BME280;5522;42.696;23.494;2023-02-22T08:52:43;53795.50;;;-139.68;24.54
10940;BME280;5522;42.696;23.494;2023-02-22T08:55:10;53815.63;;;-139.68;24.08
10940;BME280;5522;42.696;23.494;2023-02-22T08:57:37;53783.44;;;-139.68;24.20
10940;BME280;5522;42.696;23.494;2023-02-22T09:00:06;53819.63;;;-139.68;24.42
10940;BME280;5522;42.696;23.494;2023-02-22T09:02:33;53813.59;;;-139.68;23.91
10940;BME280;5522;42.696;23.494;2023-02-22T09:05:00;53815.63;;;-139.68;23.95
10940;BME280;5522;42.696;23.494;2023-02-22T09:07:27;53851.81;;;-139.68;24.60
10940;BME280;5522;42.696;23.494;2023-02-22T09:09:54;53825.66;;;-139.68;25.58
10940;BME280;5522;42.696;23.494;2023-02-22T09:12:21;53795.50;;;-139.68;24.62
10940;BME280;5522;42.696;23.494;2023-02-22T09:14:47;53787.47;;;-139.68;24.54
10940;BME280;5522;42.696;23.494;2023-02-22T09:17:16;53801.53;;;-139.68;23.90
10940;BME280;5522;42.696;23.494;2023-02-22T09:19:43;53791.50;;;-139.68;23.84
10940;BME280;5522;42.696;23.494;2023-02-22T09:22:10;53777.41;;;-139.68;23.67
10940;BME280;5522;42.696;23.494;2023-02-22T09:24:37;53795.50;;;-139.68;24.09
10940;BME280;5522;42.696;23.494;2023-02-22T09:27:03;53763.34;;;-139.68;24.18
10940;BME280;5522;42.696;23.494;2023-02-22T09:29:31;53813.59;;;-139.68;23.32
10940;BME280;5522;42.696;23.494;2023-02-22T09:31:58;53819.63;;;-139.68;23.67
10940;BME280;5522;42.696;23.494;2023-02-22T09:34:26;53791.50;;;-139.68;22.47
10940;BME280;5522;42.696;23.494;2023-02-22T09:36:54;53823.66;;;-139.68;22.49
10940;BME280;5522;42.696;23.494;2023-02-22T09:39:22;53851.81;;;-139.68;22.84
10940;BME280;5522;42.696;23.494;2023-02-22T09:41:55;53900.06;;;-139.68;22.53
10940;BME280;5522;42.696;23.494;2023-02-22T09:44:31;53867.88;;;-139.68;22.37
10940;BME280;5522;42.696;23.494;2023-02-22T09:47:02;53787.47;;;-139.68;23.04
10940;BME280;5522;42.696;23.494;2023-02-22T09:49:39;53849.78;;;-139.68;22.28
10940;BME280;5522;42.696;23.494;2023-02-22T09:52:14;53843.75;;;-139.68;22.54
10940;BME280;5522;42.696;23.494;2023-02-22T09:54:46;53817.63;;;-139.68;22.01
10940;BME280;5522;42.696;23.494;2023-02-22T09:57:19;53823.66;;;-139.68;22.67
10940;BME280;5522;42.696;23.494;2023-02-22T09:59:58;53861.84;;;-139.68;22.37
10940;BME280;5522;42.696;23.494;2023-02-22T10:02:36;53879.94;;;-139.68;22.71
10940;BME280;5522;42.696;23.494;2023-02-22T10:05:12;53825.66;;;-139.68;21.74
10940;BME280;5522;42.696;23.494;2023-02-22T10:07:46;53839.75;;;-139.68;22.37
10940;BME280;5522;42.696;23.494;2023-02-22T10:10:15;53900.06;;;-139.68;23.03
10940;BME280;5522;42.696;23.494;2023-02-22T10:12:49;53900.06;;;-139.68;22.60
10940;BME280;5522;42.696;23.494;2023-02-22T10:15:31;53847.78;;;-139.68;22.61
10940;BME280;5522;42.696;23.494;2023-02-22T10:18:19;53839.75;;;-139.68;22.88
10940;BME280;5522;42.696;23.494;2023-02-22T10:20:53;53819.63;;;-139.68;22.48
10940;BME280;5522;42.696;23.494;2023-02-22T10:23:29;53879.94;;;-139.68;22.37
10940;BME280;5522;42.696;23.494;2023-02-22T10:26:11;53827.69;;;-139.68;22.22
10940;BME280;5522;42.696;23.494;2023-02-22T10:28:42;53883.97;;;-139.68;22.30
10940;BME280;5522;42.696;23.494;2023-02-22T10:31:19;53883.97;;;-139.68;22.21
10940;BME280;5522;42.696;23.494;2023-02-22T10:33:53;53861.84;;;-139.68;21.79
10940;BME280;5522;42.696;23.494;2023-02-22T10:36:24;53827.69;;;-139.68;21.30
10940;BME280;5522;42.696;23.494;2023-02-22T10:38:54;53863.88;;;-139.68;21.13
10940;BME280;5522;42.696;23.494;2023-02-22T10:41:28;53827.69;;;-139.68;21.08
10940;BME280;5522;42.696;23.494;2023-02-22T10:43:56;53831.69;;;-139.68;21.09
10940;BME280;5522;42.696;23.494;2023-02-22T10:46:24;53855.81;;;-139.68;21.01
10940;BME280;5522;42.696;23.494;2023-02-22T10:48:56;53859.84;;;-139.68;21.12
10940;BME280;5522;42.696;23.494;2023-02-22T10:51:28;53835.72;;;-139.68;20.45
10940;BME280;5522;42.696;23.494;2023-02-22T10:56:46;53867.88;;;-139.68;20.26
10940;BME280;5522;42.696;23.494;2023-02-22T10:59:25;53855.81;;;-139.68;21.02
10940;BME280;5522;42.696;23.494;2023-02-22T11:01:52;53835.72;;;-139.68;20.66
10940;BME280;5522;42.696;23.494;2023-02-22T11:04:21;53845.78;;;-139.68;20.77
10940;BME280;5522;42.696;23.494;2023-02-22T11:07:09;53855.81;;;-139.68;21.44
10940;BME280;5522;42.696;23.494;2023-02-22T11:09:55;53863.88;;;-139.68;22.08
10940;BME280;5522;42.696;23.494;2023-02-22T11:12:29;53859.84;;;-139.68;21.37
10940;BME280;5522;42.696;23.494;2023-02-22T11:14:56;53831.69;;;-139.68;21.37
10940;BME280;5522;42.696;23.494;2023-02-22T11:17:28;53875.94;;;-139.68;21.71
10940;BME280;5522;42.696;23.494;2023-02-22T11:19:56;53855.81;;;-139.68;21.81
10940;BME280;5522;42.696;23.494;2023-02-22T11:22:27;53849.78;;;-139.68;21.98
10940;BME280;5522;42.696;23.494;2023-02-22T11:24:58;53883.97;;;-139.68;21.81
10940;BME280;5522;42.696;23.494;2023-02-22T11:27:31;53849.78;;;-139.68;22.46
10940;BME280;5522;42.696;23.494;2023-02-22T11:30:13;53869.91;;;-139.68;23.79
10940;BME280;5522;42.696;23.494;2023-02-22T11:32:47;53835.72;;;-139.68;24.40
10940;BME280;5522;42.696;23.494;2023-02-22T11:35:30;53871.91;;;-139.68;24.96
10940;BME280;5522;42.696;23.494;2023-02-22T11:38:19;53815.63;;;-139.68;25.13
10940;BME280;5522;42.696;23.494;2023-02-22T11:41:09;53843.75;;;-139.68;25.04
10940;BME280;5522;42.696;23.494;2023-02-22T11:43:39;53863.88;;;-139.68;26.04
10940;BME280;5522;42.696;23.494;2023-02-22T11:46:10;53827.69;;;-139.68;26.92
10940;BME280;5522;42.696;23.494;2023-02-22T11:48:40;53855.81;;;-139.68;27.30
10940;BME280;5522;42.696;23.494;2023-02-22T11:51:16;53813.59;;;-139.68;27.94
10940;BME280;5522;42.696;23.494;2023-02-22T11:54:15;53863.88;;;-139.68;27.00
10940;BME280;5522;42.696;23.494;2023-02-22T11:56:51;53819.63;;;-139.68;26.66
10940;BME280;5522;42.696;23.494;2023-02-22T11:59:28;53833.72;;;-139.68;27.05
10940;BME280;5522;42.696;23.494;2023-02-22T12:01:59;53831.69;;;-139.68;27.20
10940;BME280;5522;42.696;23.494;2023-02-22T12:04:54;53831.69;;;-139.68;27.16
10940;BME280;5522;42.696;23.494;2023-02-22T12:07:38;53875.94;;;-139.68;26.90
10940;BME280;5522;42.696;23.494;2023-02-22T12:10:19;53855.81;;;-139.68;27.72
10940;BME280;5522;42.696;23.494;2023-02-22T12:13:00;53819.63;;;-139.68;27.69
10940;BME280;5522;42.696;23.494;2023-02-22T12:15:38;53843.75;;;-139.68;27.81
10940;BME280;5522;42.696;23.494;2023-02-22T12:18:13;53821.66;;;-139.68;28.07
10940;BME280;5522;42.696;23.494;2023-02-22T12:20:45;53825.66;;;-139.68;28.17
10940;BME280;5522;42.696;23.494;2023-02-22T12:23:17;53859.84;;;-139.68;28.08
10940;BME280;5522;42.696;23.494;2023-02-22T12:25:54;53837.72;;;-139.68;27.29
10940;BME280;5522;42.696;23.494;2023-02-22T12:28:28;53839.75;;;-139.68;28.33
10940;BME280;5522;42.696;23.494;2023-02-22T12:31:05;53857.84;;;-139.68;28.85
10940;BME280;5522;42.696;23.494;2023-02-22T12:33:43;53815.63;;;-139.68;28.57
10940;BME280;5522;42.696;23.494;2023-02-22T12:36:15;53867.88;;;-139.68;28.53
10940;BME280;5522;42.696;23.494;2023-02-22T12:38:49;53843.75;;;-139.68;29.16
10940;BME280;5522;42.696;23.494;2023-02-22T12:41:25;53837.72;;;-139.68;28.57
10940;BME280;5522;42.696;23.494;2023-02-22T12:44:01;53821.66;;;-139.68;28.85
10940;BME280;5522;42.696;23.494;2023-02-22T12:46:35;53857.84;;;-139.68;28.63
10940;BME280;5522;42.696;23.494;2023-02-22T12:49:11;53869.91;;;-139.68;29.29
10940;BME280;5522;42.696;23.494;2023-02-22T12:51:43;53847.78;;;-139.68;29.22
10940;BME280;5522;42.696;23.494;2023-02-22T12:54:17;53823.66;;;-139.68;29.56
10940;BME280;5522;42.696;23.494;2023-02-22T12:56:53;53833.72;;;-139.68;29.77
10940;BME280;5522;42.696;23.494;2023-02-22T12:59:25;53831.69;;;-139.68;29.29
10940;BME280;5522;42.696;23.494;2023-02-22T13:01:57;53831.69;;;-139.68;29.43
10940;BME280;5522;42.696;23.494;2023-02-22T13:04:26;53845.78;;;-139.68;29.47
10940;BME280;5522;42.696;23.494;2023-02-22T13:07:04;53863.88;;;-139.68;29.87